メインページ
METAR-TAF:

METAR-TAF

空港 :

ベイルート, レバノン

緯度: 33-49N, 経度: 035-29E, 海抜: 29m

現時点の気象観測

当レポートは59分前の05:00(UTC)に作成
の風 4kt
気温 27°C
湿度 39%
気圧 1011 hPa
視程: 8000m
高度2600ftの雲はほとんどない

METAR: OLBA 200500Z 09004KT 8000 FEW026 27/12 Q1011

時間: 08:59 (05:59 UTC)

予報

当レポートは1時間59分前の04:00(UTC)に作成
予報は20日の 06時(UTC)から 21日の 12時(UTC)まで有効
西の風 12kt、西/南西から西/北西の間で変化する
視程: 8000m
高度2600ftの雲はほとんどない
20日の 21時(UTC)から 20日の 24時(UTC)まで徐々に
変向風 5kt
21日の 09時(UTC)から 21日の 12時(UTC)まで徐々に
西の風 10kt、西/南西から西/北西の間で変化する

TAF: OLBA 200400Z 2006/2112 27012KT 240V300 8000 FEW026 BECMG 2021/2024 VRB05KT BECMG 2109/2112 27010KT 240V300

4,000以上の空港の気象観測と天気予報(METAR報とTAF報)

利用可能な観測所は地図上に黄色い丸と赤い丸で示す。

丸の上にカーソルを重ねると観測所名を参照できる。

次にクリックすると気象観測と天気予報を参照できる。

マップの切り替え:黒色「×」印の緑ボタンをクリックして拡大、「-」印の緑ボタンをクリックして縮小、緑色の三角印をクリックして隣りの地図に切り替え


METAR-TAF: